sensor_id;sensor_type;location;lat;lon;timestamp;temperature;humidity
22966;DHT22;11649;48.090;9.754;2023-04-01T00:01:26;6.40;99.90
22966;DHT22;11649;48.090;9.754;2023-04-01T00:03:53;6.30;99.90
22966;DHT22;11649;48.090;9.754;2023-04-01T00:06:21;6.40;99.90
22966;DHT22;11649;48.090;9.754;2023-04-01T00:08:48;6.40;99.90
22966;DHT22;11649;48.090;9.754;2023-04-01T00:11:15;6.40;99.90
22966;DHT22;11649;48.090;9.754;2023-04-01T00:13:42;6.30;99.90
22966;DHT22;11649;48.090;9.754;2023-04-01T00:16:09;6.30;99.90
22966;DHT22;11649;48.090;9.754;2023-04-01T00:18:47;6.30;99.90
22966;DHT22;11649;48.090;9.754;2023-04-01T00:21:15;6.30;99.90
22966;DHT22;11649;48.090;9.754;2023-04-01T00:23:42;6.30;99.90
22966;DHT22;11649;48.090;9.754;2023-04-01T00:26:10;6.30;99.90
22966;DHT22;11649;48.090;9.754;2023-04-01T00:28:39;6.20;99.90
22966;DHT22;11649;48.090;9.754;2023-04-01T00:31:07;6.20;99.90
22966;DHT22;11649;48.090;9.754;2023-04-01T00:33:34;6.30;99.90
22966;DHT22;11649;48.090;9.754;2023-04-01T00:36:14;6.30;99.90
22966;DHT22;11649;48.090;9.754;2023-04-01T00:38:42;6.20;99.90
22966;DHT22;11649;48.090;9.754;2023-04-01T00:41:10;6.30;99.90
22966;DHT22;11649;48.090;9.754;2023-04-01T00:43:46;6.30;99.90
22966;DHT22;11649;48.090;9.754;2023-04-01T00:46:14;6.30;99.90
22966;DHT22;11649;48.090;9.754;2023-04-01T00:48:53;6.30;99.90
22966;DHT22;11649;48.090;9.754;2023-04-01T00:51:23;6.20;99.90
22966;DHT22;11649;48.090;9.754;2023-04-01T00:53:54;6.30;99.90
22966;DHT22;11649;48.090;9.754;2023-04-01T00:58:56;6.30;99.90
22966;DHT22;11649;48.090;9.754;2023-04-01T01:01:24;6.30;99.90
22966;DHT22;11649;48.090;9.754;2023-04-01T01:03:52;6.40;99.90
22966;DHT22;11649;48.090;9.754;2023-04-01T01:06:37;6.30;99.90
22966;DHT22;11649;48.090;9.754;2023-04-01T01:09:25;6.30;99.90
22966;DHT22;11649;48.090;9.754;2023-04-01T01:12:13;6.30;99.90
22966;DHT22;11649;48.090;9.754;2023-04-01T01:17:30;6.30;99.90
22966;DHT22;11649;48.090;9.754;2023-04-01T01:20:33;6.30;99.90
22966;DHT22;11649;48.090;9.754;2023-04-01T01:37:30;6.20;99.90
22966;DHT22;11649;48.090;9.754;2023-04-01T01:40:05;6.10;99.90
22966;DHT22;11649;48.090;9.754;2023-04-01T01:42:36;6.20;99.90
22966;DHT22;11649;48.090;9.754;2023-04-01T01:45:06;6.20;99.90
22966;DHT22;11649;48.090;9.754;2023-04-01T01:47:34;6.20;99.90
22966;DHT22;11649;48.090;9.754;2023-04-01T01:50:04;6.20;99.90
22966;DHT22;11649;48.090;9.754;2023-04-01T01:52:31;6.20;99.90
22966;DHT22;11649;48.090;9.754;2023-04-01T01:54:58;6.20;99.90
22966;DHT22;11649;48.090;9.754;2023-04-01T01:57:33;6.20;99.90
22966;DHT22;11649;48.090;9.754;2023-04-01T02:00:06;6.10;99.90
22966;DHT22;11649;48.090;9.754;2023-04-01T02:02:44;6.10;99.90
22966;DHT22;11649;48.090;9.754;2023-04-01T02:05:16;6.10;99.90
22966;DHT22;11649;48.090;9.754;2023-04-01T02:07:46;6.00;99.90
22966;DHT22;11649;48.090;9.754;2023-04-01T02:10:14;6.00;99.90
22966;DHT22;11649;48.090;9.754;2023-04-01T02:12:44;6.00;99.90
22966;DHT22;11649;48.090;9.754;2023-04-01T02:15:14;6.00;99.90
22966;DHT22;11649;48.090;9.754;2023-04-01T02:17:45;6.00;99.90
22966;DHT22;11649;48.090;9.754;2023-04-01T02:20:20;6.00;99.90
22966;DHT22;11649;48.090;9.754;2023-04-01T02:22:49;6.00;99.90
22966;DHT22;11649;48.090;9.754;2023-04-01T02:25:24;6.00;99.90
22966;DHT22;11649;48.090;9.754;2023-04-01T02:27:53;5.90;99.90
22966;DHT22;11649;48.090;9.754;2023-04-01T02:30:21;5.90;99.90
22966;DHT22;11649;48.090;9.754;2023-04-01T02:32:49;5.80;99.90
22966;DHT22;11649;48.090;9.754;2023-04-01T02:35:16;5.80;99.90
22966;DHT22;11649;48.090;9.754;2023-04-01T02:37:45;5.80;99.90
22966;DHT22;11649;48.090;9.754;2023-04-01T02:40:16;5.70;99.90
22966;DHT22;11649;48.090;9.754;2023-04-01T02:42:43;5.70;99.90
22966;DHT22;11649;48.090;9.754;2023-04-01T02:45:12;5.70;99.90
22966;DHT22;11649;48.090;9.754;2023-04-01T02:47:39;5.70;99.90
22966;DHT22;11649;48.090;9.754;2023-04-01T02:50:06;5.70;99.90
22966;DHT22;11649;48.090;9.754;2023-04-01T02:52:33;5.70;99.90
22966;DHT22;11649;48.090;9.754;2023-04-01T02:55:00;5.70;99.90
22966;DHT22;11649;48.090;9.754;2023-04-01T02:57:28;5.70;99.90
22966;DHT22;11649;48.090;9.754;2023-04-01T02:59:55;5.70;99.90
22966;DHT22;11649;48.090;9.754;2023-04-01T03:02:22;5.80;99.90
22966;DHT22;11649;48.090;9.754;2023-04-01T03:04:49;5.50;99.90
22966;DHT22;11649;48.090;9.754;2023-04-01T03:07:16;5.70;99.90
22966;DHT22;11649;48.090;9.754;2023-04-01T03:09:43;5.70;99.90
22966;DHT22;11649;48.090;9.754;2023-04-01T03:12:09;5.70;99.90
22966;DHT22;11649;48.090;9.754;2023-04-01T03:14:36;5.60;99.90
22966;DHT22;11649;48.090;9.754;2023-04-01T03:17:03;5.60;99.90
22966;DHT22;11649;48.090;9.754;2023-04-01T03:19:30;5.60;99.90
22966;DHT22;11649;48.090;9.754;2023-04-01T03:21:56;5.60;99.90
22966;DHT22;11649;48.090;9.754;2023-04-01T03:24:23;5.60;99.90
22966;DHT22;11649;48.090;9.754;2023-04-01T03:26:50;5.60;99.90
22966;DHT22;11649;48.090;9.754;2023-04-01T03:29:17;5.60;99.90
22966;DHT22;11649;48.090;9.754;2023-04-01T03:31:43;5.60;99.90
22966;DHT22;11649;48.090;9.754;2023-04-01T03:34:10;5.70;99.90
22966;DHT22;11649;48.090;9.754;2023-04-01T03:36:37;5.70;99.90
22966;DHT22;11649;48.090;9.754;2023-04-01T03:39:04;5.70;99.90
22966;DHT22;11649;48.090;9.754;2023-04-01T03:41:32;5.60;99.90
22966;DHT22;11649;48.090;9.754;2023-04-01T03:43:59;5.60;99.90
22966;DHT22;11649;48.090;9.754;2023-04-01T03:46:26;5.60;99.90
22966;DHT22;11649;48.090;9.754;2023-04-01T03:48:53;5.60;99.90
22966;DHT22;11649;48.090;9.754;2023-04-01T03:51:19;5.60;99.90
22966;DHT22;11649;48.090;9.754;2023-04-01T03:53:46;5.60;99.90
22966;DHT22;11649;48.090;9.754;2023-04-01T03:56:13;5.60;99.90
22966;DHT22;11649;48.090;9.754;2023-04-01T03:58:40;5.60;99.90
22966;DHT22;11649;48.090;9.754;2023-04-01T04:01:15;5.60;99.90
22966;DHT22;11649;48.090;9.754;2023-04-01T04:03:42;5.60;99.90
22966;DHT22;11649;48.090;9.754;2023-04-01T04:06:13;5.50;99.90
22966;DHT22;11649;48.090;9.754;2023-04-01T04:08:40;5.50;99.90
22966;DHT22;11649;48.090;9.754;2023-04-01T04:11:06;5.60;99.90
22966;DHT22;11649;48.090;9.754;2023-04-01T04:13:33;5.60;99.90
22966;DHT22;11649;48.090;9.754;2023-04-01T04:16:00;5.60;99.90
22966;DHT22;11649;48.090;9.754;2023-04-01T04:18:27;5.50;99.90
22966;DHT22;11649;48.090;9.754;2023-04-01T04:20:54;5.60;99.90
22966;DHT22;11649;48.090;9.754;2023-04-01T04:23:21;5.70;99.90
22966;DHT22;11649;48.090;9.754;2023-04-01T04:25:56;5.60;99.90
22966;DHT22;11649;48.090;9.754;2023-04-01T04:28:24;5.70;99.90
22966;DHT22;11649;48.090;9.754;2023-04-01T04:30:51;5.70;99.90
22966;DHT22;11649;48.090;9.754;2023-04-01T04:33:18;5.70;99.90
22966;DHT22;11649;48.090;9.754;2023-04-01T04:35:45;5.70;99.90
22966;DHT22;11649;48.090;9.754;2023-04-01T04:38:12;5.70;99.90
22966;DHT22;11649;48.090;9.754;2023-04-01T04:40:40;5.60;99.90
22966;DHT22;11649;48.090;9.754;2023-04-01T04:43:07;5.70;99.90
22966;DHT22;11649;48.090;9.754;2023-04-01T04:45:33;5.60;99.90
22966;DHT22;11649;48.090;9.754;2023-04-01T04:48:01;5.60;99.90
22966;DHT22;11649;48.090;9.754;2023-04-01T04:50:28;5.60;99.90
22966;DHT22;11649;48.090;9.754;2023-04-01T04:52:54;5.70;99.90
22966;DHT22;11649;48.090;9.754;2023-04-01T04:55:21;5.70;99.90
22966;DHT22;11649;48.090;9.754;2023-04-01T04:57:48;5.70;99.90
22966;DHT22;11649;48.090;9.754;2023-04-01T05:00:15;5.70;99.90
22966;DHT22;11649;48.090;9.754;2023-04-01T05:02:42;5.70;99.90
22966;DHT22;11649;48.090;9.754;2023-04-01T05:05:09;5.80;99.90
22966;DHT22;11649;48.090;9.754;2023-04-01T05:07:36;5.80;99.90
22966;DHT22;11649;48.090;9.754;2023-04-01T05:10:04;5.80;99.90
22966;DHT22;11649;48.090;9.754;2023-04-01T05:12:31;5.80;99.90
22966;DHT22;11649;48.090;9.754;2023-04-01T05:15:00;5.80;99.90
22966;DHT22;11649;48.090;9.754;2023-04-01T05:17:26;5.80;99.90
22966;DHT22;11649;48.090;9.754;2023-04-01T05:19:53;5.90;99.90
22966;DHT22;11649;48.090;9.754;2023-04-01T05:22:20;5.90;99.90
22966;DHT22;11649;48.090;9.754;2023-04-01T05:24:47;6.00;99.90
22966;DHT22;11649;48.090;9.754;2023-04-01T05:27:14;5.90;99.90
22966;DHT22;11649;48.090;9.754;2023-04-01T05:29:40;5.90;99.90
22966;DHT22;11649;48.090;9.754;2023-04-01T05:32:07;5.90;99.90
22966;DHT22;11649;48.090;9.754;2023-04-01T05:34:34;6.00;99.90
22966;DHT22;11649;48.090;9.754;2023-04-01T05:37:01;6.00;99.90
22966;DHT22;11649;48.090;9.754;2023-04-01T05:39:27;6.00;99.90
22966;DHT22;11649;48.090;9.754;2023-04-01T05:41:54;6.00;99.90
22966;DHT22;11649;48.090;9.754;2023-04-01T05:44:21;6.00;99.90
22966;DHT22;11649;48.090;9.754;2023-04-01T05:46:48;6.00;99.90
22966;DHT22;11649;48.090;9.754;2023-04-01T05:49:15;6.00;99.90
22966;DHT22;11649;48.090;9.754;2023-04-01T05:51:41;6.00;99.90
22966;DHT22;11649;48.090;9.754;2023-04-01T05:54:08;6.10;99.90
22966;DHT22;11649;48.090;9.754;2023-04-01T05:56:35;6.10;99.90
22966;DHT22;11649;48.090;9.754;2023-04-01T05:59:02;6.10;99.90
22966;DHT22;11649;48.090;9.754;2023-04-01T06:01:29;6.40;99.90
22966;DHT22;11649;48.090;9.754;2023-04-01T06:03:55;6.10;99.90
22966;DHT22;11649;48.090;9.754;2023-04-01T06:06:28;6.20;99.90
22966;DHT22;11649;48.090;9.754;2023-04-01T06:08:57;6.20;99.90
22966;DHT22;11649;48.090;9.754;2023-04-01T06:17:27;6.30;99.90
22966;DHT22;11649;48.090;9.754;2023-04-01T06:20:18;6.30;99.90
22966;DHT22;11649;48.090;9.754;2023-04-01T06:23:01;6.30;99.90
22966;DHT22;11649;48.090;9.754;2023-04-01T06:25:41;6.40;99.90
22966;DHT22;11649;48.090;9.754;2023-04-01T06:33:54;6.40;99.90
22966;DHT22;11649;48.090;9.754;2023-04-01T06:39:30;6.40;99.90
22966;DHT22;11649;48.090;9.754;2023-04-01T06:45:00;6.50;99.90
22966;DHT22;11649;48.090;9.754;2023-04-01T06:50:26;6.60;99.90
22966;DHT22;11649;48.090;9.754;2023-04-01T06:53:10;6.60;99.90
22966;DHT22;11649;48.090;9.754;2023-04-01T06:55:46;6.60;99.90
22966;DHT22;11649;48.090;9.754;2023-04-01T06:58:20;6.60;99.90
22966;DHT22;11649;48.090;9.754;2023-04-01T07:00:51;6.60;99.90
22966;DHT22;11649;48.090;9.754;2023-04-01T07:03:40;6.60;99.90
22966;DHT22;11649;48.090;9.754;2023-04-01T07:06:16;6.70;99.90
22966;DHT22;11649;48.090;9.754;2023-04-01T07:08:46;6.70;99.90
22966;DHT22;11649;48.090;9.754;2023-04-01T07:11:28;6.80;99.90
22966;DHT22;11649;48.090;9.754;2023-04-01T07:14:15;6.90;99.90
22966;DHT22;11649;48.090;9.754;2023-04-01T07:21:56;7.00;99.90
22966;DHT22;11649;48.090;9.754;2023-04-01T07:24:39;7.00;99.90
22966;DHT22;11649;48.090;9.754;2023-04-01T07:27:13;7.10;99.90
22966;DHT22;11649;48.090;9.754;2023-04-01T07:29:41;7.10;99.90
22966;DHT22;11649;48.090;9.754;2023-04-01T07:32:47;7.20;99.90
22966;DHT22;11649;48.090;9.754;2023-04-01T07:35:42;7.30;99.90
22966;DHT22;11649;48.090;9.754;2023-04-01T07:38:28;7.50;99.90
22966;DHT22;11649;48.090;9.754;2023-04-01T07:46:32;7.70;99.90
22966;DHT22;11649;48.090;9.754;2023-04-01T07:49:35;7.70;99.90
22966;DHT22;11649;48.090;9.754;2023-04-01T07:55:30;7.70;99.90
22966;DHT22;11649;48.090;9.754;2023-04-01T07:58:24;7.70;99.90
22966;DHT22;11649;48.090;9.754;2023-04-01T08:01:17;7.70;99.90
22966;DHT22;11649;48.090;9.754;2023-04-01T08:07:06;7.60;99.90
22966;DHT22;11649;48.090;9.754;2023-04-01T08:15:26;7.60;99.90
22966;DHT22;11649;48.090;9.754;2023-04-01T08:18:03;7.70;99.90
22966;DHT22;11649;48.090;9.754;2023-04-01T08:23:26;7.80;99.90
22966;DHT22;11649;48.090;9.754;2023-04-01T08:28:37;7.80;99.90
22966;DHT22;11649;48.090;9.754;2023-04-01T08:31:10;7.80;99.90
22966;DHT22;11649;48.090;9.754;2023-04-01T08:33:39;7.80;99.90
22966;DHT22;11649;48.090;9.754;2023-04-01T08:36:15;7.80;99.90
22966;DHT22;11649;48.090;9.754;2023-04-01T08:39:04;7.80;99.90
22966;DHT22;11649;48.090;9.754;2023-04-01T08:50:31;7.90;99.90
22966;DHT22;11649;48.090;9.754;2023-04-01T09:04:50;7.90;99.90
22966;DHT22;11649;48.090;9.754;2023-04-01T09:10:18;7.90;99.90
22966;DHT22;11649;48.090;9.754;2023-04-01T09:13:04;7.90;99.90
22966;DHT22;11649;48.090;9.754;2023-04-01T09:18:56;7.90;99.90
22966;DHT22;11649;48.090;9.754;2023-04-01T09:26:59;7.80;99.90
22966;DHT22;11649;48.090;9.754;2023-04-01T09:41:16;7.70;99.90
22966;DHT22;11649;48.090;9.754;2023-04-01T09:44:08;7.70;99.90
22966;DHT22;11649;48.090;9.754;2023-04-01T09:52:53;7.70;99.90
22966;DHT22;11649;48.090;9.754;2023-04-01T10:00:26;7.60;99.90
22966;DHT22;11649;48.090;9.754;2023-04-01T10:14:45;7.60;99.90
22966;DHT22;11649;48.090;9.754;2023-04-01T10:20:21;7.70;99.90
22966;DHT22;11649;48.090;9.754;2023-04-01T10:28:35;7.80;99.90
22966;DHT22;11649;48.090;9.754;2023-04-01T10:37:23;7.80;99.90
22966;DHT22;11649;48.090;9.754;2023-04-01T11:00:14;7.70;99.90
22966;DHT22;11649;48.090;9.754;2023-04-01T11:05:41;7.60;99.90
22966;DHT22;11649;48.090;9.754;2023-04-01T11:22:46;7.30;99.90
22966;DHT22;11649;48.090;9.754;2023-04-01T11:43:14;6.90;99.90
22966;DHT22;11649;48.090;9.754;2023-04-01T11:46:11;6.90;99.90
22966;DHT22;11649;48.090;9.754;2023-04-01T11:49:02;6.80;99.90
22966;DHT22;11649;48.090;9.754;2023-04-01T11:51:54;6.80;99.90
22966;DHT22;11649;48.090;9.754;2023-04-01T11:54:45;6.80;99.90
22966;DHT22;11649;48.090;9.754;2023-04-01T12:03:14;7.00;99.90
22966;DHT22;11649;48.090;9.754;2023-04-01T12:08:44;7.10;99.90
22966;DHT22;11649;48.090;9.754;2023-04-01T12:11:17;7.10;99.90
22966;DHT22;11649;48.090;9.754;2023-04-01T12:14:03;7.10;99.90
22966;DHT22;11649;48.090;9.754;2023-04-01T12:22:45;7.10;99.90
22966;DHT22;11649;48.090;9.754;2023-04-01T12:28:20;7.30;99.90
22966;DHT22;11649;48.090;9.754;2023-04-01T12:33:42;7.30;99.90
22966;DHT22;11649;48.090;9.754;2023-04-01T12:47:49;7.80;99.90
22966;DHT22;11649;48.090;9.754;2023-04-01T12:55:48;8.10;99.90
22966;DHT22;11649;48.090;9.754;2023-04-01T12:58:44;8.10;99.90
22966;DHT22;11649;48.090;9.754;2023-04-01T13:01:27;8.20;99.90
22966;DHT22;11649;48.090;9.754;2023-04-01T13:04:01;8.30;99.90
22966;DHT22;11649;48.090;9.754;2023-04-01T13:06:48;8.30;99.90
22966;DHT22;11649;48.090;9.754;2023-04-01T13:20:36;8.30;99.90
22966;DHT22;11649;48.090;9.754;2023-04-01T13:28:56;8.30;99.90
22966;DHT22;11649;48.090;9.754;2023-04-01T13:31:55;8.60;99.90
22966;DHT22;11649;48.090;9.754;2023-04-01T13:39:45;9.00;99.90
22966;DHT22;11649;48.090;9.754;2023-04-01T13:42:50;9.00;99.90
22966;DHT22;11649;48.090;9.754;2023-04-01T13:45:33;9.10;99.90
22966;DHT22;11649;48.090;9.754;2023-04-01T13:54:09;9.10;99.90
22966;DHT22;11649;48.090;9.754;2023-04-01T13:57:28;9.00;99.90
22966;DHT22;11649;48.090;9.754;2023-04-01T14:08:52;8.90;99.90
22966;DHT22;11649;48.090;9.754;2023-04-01T14:20:15;8.70;99.90
22966;DHT22;11649;48.090;9.754;2023-04-01T14:23:02;8.90;99.90
22966;DHT22;11649;48.090;9.754;2023-04-01T14:25:53;8.80;99.90
22966;DHT22;11649;48.090;9.754;2023-04-01T14:28:32;8.80;99.90
22966;DHT22;11649;48.090;9.754;2023-04-01T14:34:15;8.70;99.90
22966;DHT22;11649;48.090;9.754;2023-04-01T14:45:02;8.70;99.90
22966;DHT22;11649;48.090;9.754;2023-04-01T14:47:54;8.80;99.90
22966;DHT22;11649;48.090;9.754;2023-04-01T14:50:25;8.70;99.90
22966;DHT22;11649;48.090;9.754;2023-04-01T14:53:13;8.70;99.90
22966;DHT22;11649;48.090;9.754;2023-04-01T15:00:55;8.80;99.90
22966;DHT22;11649;48.090;9.754;2023-04-01T15:03:54;8.70;99.90
22966;DHT22;11649;48.090;9.754;2023-04-01T15:15:35;8.70;99.90
22966;DHT22;11649;48.090;9.754;2023-04-01T15:17:41;8.70;99.90
22966;DHT22;11649;48.090;9.754;2023-04-01T15:20:32;8.70;99.90
22966;DHT22;11649;48.090;9.754;2023-04-01T15:23:27;8.60;99.90
22966;DHT22;11649;48.090;9.754;2023-04-01T15:31:49;8.60;99.90
22966;DHT22;11649;48.090;9.754;2023-04-01T15:34:30;8.60;99.90
22966;DHT22;11649;48.090;9.754;2023-04-01T15:37:18;8.50;99.90
22966;DHT22;11649;48.090;9.754;2023-04-01T15:50:46;8.50;99.90
22966;DHT22;11649;48.090;9.754;2023-04-01T16:01:35;8.50;99.90
22966;DHT22;11649;48.090;9.754;2023-04-01T16:10:16;8.50;99.90
22966;DHT22;11649;48.090;9.754;2023-04-01T16:12:58;8.40;99.90
22966;DHT22;11649;48.090;9.754;2023-04-01T16:15:44;8.40;99.90
22966;DHT22;11649;48.090;9.754;2023-04-01T16:23:59;8.40;99.90
22966;DHT22;11649;48.090;9.754;2023-04-01T16:26:50;8.50;99.90
22966;DHT22;11649;48.090;9.754;2023-04-01T16:29:32;8.50;99.90
22966;DHT22;11649;48.090;9.754;2023-04-01T16:37:50;8.50;99.90
22966;DHT22;11649;48.090;9.754;2023-04-01T16:43:16;8.40;99.90
22966;DHT22;11649;48.090;9.754;2023-04-01T16:46:12;8.40;99.90
22966;DHT22;11649;48.090;9.754;2023-04-01T16:49:00;8.40;99.90
22966;DHT22;11649;48.090;9.754;2023-04-01T16:51:41;8.40;99.90
22966;DHT22;11649;48.090;9.754;2023-04-01T16:59:55;8.30;99.90
22966;DHT22;11649;48.090;9.754;2023-04-01T17:02:31;7.90;99.90
22966;DHT22;11649;48.090;9.754;2023-04-01T17:05:04;7.70;99.90
22966;DHT22;11649;48.090;9.754;2023-04-01T17:10:51;7.50;99.90
22966;DHT22;11649;48.090;9.754;2023-04-01T17:13:35;7.40;99.90
22966;DHT22;11649;48.090;9.754;2023-04-01T17:16:07;7.40;99.90
22966;DHT22;11649;48.090;9.754;2023-04-01T17:19:14;7.40;99.90
22966;DHT22;11649;48.090;9.754;2023-04-01T17:30:17;7.40;99.90
22966;DHT22;11649;48.090;9.754;2023-04-01T17:35:36;7.50;99.90
22966;DHT22;11649;48.090;9.754;2023-04-01T17:49:02;7.50;99.90
22966;DHT22;11649;48.090;9.754;2023-04-01T17:51:40;7.50;99.90
22966;DHT22;11649;48.090;9.754;2023-04-01T17:54:26;7.50;99.90
22966;DHT22;11649;48.090;9.754;2023-04-01T17:57:09;7.40;99.90
22966;DHT22;11649;48.090;9.754;2023-04-01T18:00:01;7.50;99.90
22966;DHT22;11649;48.090;9.754;2023-04-01T18:03:00;7.50;99.90
22966;DHT22;11649;48.090;9.754;2023-04-01T18:08:47;7.40;99.90
22966;DHT22;11649;48.090;9.754;2023-04-01T18:14:53;7.40;99.90
22966;DHT22;11649;48.090;9.754;2023-04-01T18:22:57;7.40;99.90
22966;DHT22;11649;48.090;9.754;2023-04-01T18:25:40;7.40;99.90
22966;DHT22;11649;48.090;9.754;2023-04-01T18:33:34;7.30;99.90
22966;DHT22;11649;48.090;9.754;2023-04-01T18:39:03;7.30;99.90
22966;DHT22;11649;48.090;9.754;2023-04-01T18:47:30;7.30;99.90
22966;DHT22;11649;48.090;9.754;2023-04-01T18:50:12;7.30;99.90
22966;DHT22;11649;48.090;9.754;2023-04-01T18:52:43;7.20;99.90
22966;DHT22;11649;48.090;9.754;2023-04-01T18:55:24;7.20;99.90
22966;DHT22;11649;48.090;9.754;2023-04-01T18:58:06;7.10;99.90
22966;DHT22;11649;48.090;9.754;2023-04-01T19:00:48;7.10;99.90
22966;DHT22;11649;48.090;9.754;2023-04-01T19:03:25;7.10;99.90
22966;DHT22;11649;48.090;9.754;2023-04-01T19:06:01;7.10;99.90
22966;DHT22;11649;48.090;9.754;2023-04-01T19:08:40;7.00;99.90
22966;DHT22;11649;48.090;9.754;2023-04-01T19:11:31;7.00;99.90
22966;DHT22;11649;48.090;9.754;2023-04-01T19:17:15;7.00;99.90
22966;DHT22;11649;48.090;9.754;2023-04-01T19:19:58;7.00;99.90
22966;DHT22;11649;48.090;9.754;2023-04-01T19:23:07;6.90;99.90
22966;DHT22;11649;48.090;9.754;2023-04-01T19:25:52;6.90;99.90
22966;DHT22;11649;48.090;9.754;2023-04-01T19:36:37;6.80;99.90
22966;DHT22;11649;48.090;9.754;2023-04-01T19:47:10;6.70;99.90
22966;DHT22;11649;48.090;9.754;2023-04-01T19:52:38;6.60;99.90
22966;DHT22;11649;48.090;9.754;2023-04-01T20:00:53;6.70;99.90
22966;DHT22;11649;48.090;9.754;2023-04-01T20:06:20;6.60;99.90
22966;DHT22;11649;48.090;9.754;2023-04-01T20:14:53;6.60;99.90
22966;DHT22;11649;48.090;9.754;2023-04-01T20:17:53;6.60;99.90
22966;DHT22;11649;48.090;9.754;2023-04-01T20:20:27;6.50;99.90
22966;DHT22;11649;48.090;9.754;2023-04-01T20:23:16;6.50;99.90
22966;DHT22;11649;48.090;9.754;2023-04-01T20:26:06;6.50;99.90
22966;DHT22;11649;48.090;9.754;2023-04-01T20:28:50;6.50;99.90
22966;DHT22;11649;48.090;9.754;2023-04-01T20:31:40;6.50;99.90
22966;DHT22;11649;48.090;9.754;2023-04-01T20:37:10;6.50;99.90
22966;DHT22;11649;48.090;9.754;2023-04-01T20:42:57;6.40;99.90
22966;DHT22;11649;48.090;9.754;2023-04-01T20:45:55;6.40;99.90
22966;DHT22;11649;48.090;9.754;2023-04-01T20:51:16;6.30;99.90
22966;DHT22;11649;48.090;9.754;2023-04-01T20:54:02;6.30;99.90
22966;DHT22;11649;48.090;9.754;2023-04-01T21:07:57;6.30;99.90
22966;DHT22;11649;48.090;9.754;2023-04-01T21:11:10;6.30;99.90
22966;DHT22;11649;48.090;9.754;2023-04-01T21:14:28;6.30;99.90
22966;DHT22;11649;48.090;9.754;2023-04-01T21:19:47;6.20;99.90
22966;DHT22;11649;48.090;9.754;2023-04-01T21:25:09;6.10;99.90
22966;DHT22;11649;48.090;9.754;2023-04-01T21:53:16;5.90;99.90
22966;DHT22;11649;48.090;9.754;2023-04-01T21:59:15;5.90;99.90
22966;DHT22;11649;48.090;9.754;2023-04-01T22:04:48;5.90;99.90
22966;DHT22;11649;48.090;9.754;2023-04-01T22:07:23;5.80;99.90
22966;DHT22;11649;48.090;9.754;2023-04-01T22:12:30;5.80;99.90
22966;DHT22;11649;48.090;9.754;2023-04-01T22:17:48;5.80;99.90
22966;DHT22;11649;48.090;9.754;2023-04-01T22:20:31;5.80;99.90
22966;DHT22;11649;48.090;9.754;2023-04-01T22:23:15;5.80;99.90
22966;DHT22;11649;48.090;9.754;2023-04-01T22:28:27;5.70;99.90
22966;DHT22;11649;48.090;9.754;2023-04-01T22:31:03;5.70;99.90
22966;DHT22;11649;48.090;9.754;2023-04-01T22:36:53;5.70;99.90
22966;DHT22;11649;48.090;9.754;2023-04-01T22:39:45;5.70;99.90
22966;DHT22;11649;48.090;9.754;2023-04-01T22:47:53;5.60;99.90
22966;DHT22;11649;48.090;9.754;2023-04-01T22:56:03;5.60;99.90
22966;DHT22;11649;48.090;9.754;2023-04-01T22:58:36;5.70;99.90
22966;DHT22;11649;48.090;9.754;2023-04-01T23:01:13;5.70;99.90
22966;DHT22;11649;48.090;9.754;2023-04-01T23:03:44;5.70;99.90
22966;DHT22;11649;48.090;9.754;2023-04-01T23:06:24;5.70;99.90
22966;DHT22;11649;48.090;9.754;2023-04-01T23:09:20;5.80;99.90
22966;DHT22;11649;48.090;9.754;2023-04-01T23:12:20;5.70;99.90
22966;DHT22;11649;48.090;9.754;2023-04-01T23:14:58;5.70;99.90
22966;DHT22;11649;48.090;9.754;2023-04-01T23:23:18;5.60;99.90
22966;DHT22;11649;48.090;9.754;2023-04-01T23:28:50;5.60;99.90
22966;DHT22;11649;48.090;9.754;2023-04-01T23:31:31;5.60;99.90
22966;DHT22;11649;48.090;9.754;2023-04-01T23:34:22;5.60;99.90
22966;DHT22;11649;48.090;9.754;2023-04-01T23:36:53;5.60;99.90
22966;DHT22;11649;48.090;9.754;2023-04-01T23:39:25;5.60;99.90
22966;DHT22;11649;48.090;9.754;2023-04-01T23:41:56;5.60;99.90
22966;DHT22;11649;48.090;9.754;2023-04-01T23:44:25;5.70;99.90
22966;DHT22;11649;48.090;9.754;2023-04-01T23:46:54;5.70;99.90
22966;DHT22;11649;48.090;9.754;2023-04-01T23:49:25;5.70;99.90
22966;DHT22;11649;48.090;9.754;2023-04-01T23:52:38;5.80;99.90
22966;DHT22;11649;48.090;9.754;2023-04-01T23:55:22;5.90;99.90
